PWSweather.com
Personal Weather Stations
Station Observations
SHAHALMS1
Eftra, Falkenberg, HA

EftraFalkenberg, HA

Lat: 56.85, Lon: 12.65

Elevation: 140

Station Type:

http://hem.passagen.se/risarp101

High Low Average
Temperature 54.1°F12.3°C 41.4°F5.2°C 48.0°F8.9°C
Dew Point 43.6°F6.4°C 35.7°F2.1°C 40.1°F4.5°C
Winds 8.6 mph 13.8 kmh Calm Calm 3.0 mph SSW4.8 kmh SSW
Wind Gusts 14.3 mph23.0 kmh -- 7.0 mph11.3 kmh
Humidity 84% 59% 75%
Pressure 30.01 in1016.3 mb 29.77 in1008.1 mb -
Precipitation 0.00 in0.0 mm - -
Hour Temp Dew Point Humidity Winds Wind Gusts Pressure Precip Precip Rate Daily Precip Total
12:00 AM 41.4°F5.2°C 35.7°F2.1°C 80% Calm Calm -- 29.98 in1015.2 mb 0.00 in0.0 mm 0.00 in0.0 mm 0.00 in0.0 mm
12:15 AM 42.1°F5.6°C 36.7°F2.6°C 81% 0.6 mph W1.0 kmh W 3.9 mph6.3 kmh 30.01 in1016.3 mb 0.00 in0.0 mm 0.00 in0.0 mm 0.00 in0.0 mm
12:30 AM 42.8°F6.0°C 37.7°F3.2°C 82% 0.8 mph W1.3 kmh W 4.3 mph6.9 kmh 29.98 in1015.2 mb 0.00 in0.0 mm 0.00 in0.0 mm 0.00 in0.0 mm
12:45 AM 43.5°F6.4°C 38.7°F3.7°C 83% 1.8 mph W2.9 kmh W 6.1 mph9.8 kmh 29.98 in1015.2 mb 0.00 in0.0 mm 0.00 in0.0 mm 0.00 in0.0 mm
01:00 AM 44.1°F6.7°C 39.5°F4.2°C 84% 1.4 mph W2.3 kmh W 4.7 mph7.6 kmh 29.98 in1015.2 mb 0.00 in0.0 mm 0.00 in0.0 mm 0.00 in0.0 mm
01:15 AM 44.2°F6.8°C 39.7°F4.3°C 84% 2.7 mph WNW4.3 kmh WNW 7.9 mph12.7 kmh 29.95 in1014.2 mb 0.00 in0.0 mm 0.00 in0.0 mm 0.00 in0.0 mm
01:30 AM 44.4°F6.9°C 39.9°F4.4°C 84% 0.9 mph NW1.4 kmh NW 4.7 mph7.6 kmh 29.98 in1015.2 mb 0.00 in0.0 mm 0.00 in0.0 mm 0.00 in0.0 mm
01:45 AM 44.4°F6.9°C 39.9°F4.4°C 84% 2.2 mph NW3.5 kmh NW 6.8 mph10.9 kmh 29.95 in1014.2 mb 0.00 in0.0 mm 0.00 in0.0 mm 0.00 in0.0 mm
02:00 AM 44.4°F6.9°C 39.9°F4.4°C 84% 1.1 mph W1.8 kmh W 4.7 mph7.6 kmh 29.95 in1014.2 mb 0.00 in0.0 mm 0.00 in0.0 mm 0.00 in0.0 mm
02:15 AM 44.4°F6.9°C 39.9°F4.4°C 84% 4.3 mph WNW6.9 kmh WNW 9.7 mph15.6 kmh 29.95 in1014.2 mb 0.00 in0.0 mm 0.00 in0.0 mm 0.00 in0.0 mm
02:30 AM 44.4°F6.9°C 39.9°F4.4°C 84% 4.5 mph WNW7.2 kmh WNW 8.9 mph14.3 kmh 29.95 in1014.2 mb 0.00 in0.0 mm 0.00 in0.0 mm 0.00 in0.0 mm
02:45 AM 44.4°F6.9°C 39.9°F4.4°C 84% 2.5 mph WNW4.0 kmh WNW 7.9 mph12.7 kmh 29.95 in1014.2 mb 0.00 in0.0 mm 0.00 in0.0 mm 0.00 in0.0 mm
03:00 AM 44.4°F6.9°C 39.9°F4.4°C 84% 1.9 mph WNW3.1 kmh WNW 6.4 mph10.3 kmh 29.95 in1014.2 mb 0.00 in0.0 mm 0.00 in0.0 mm 0.00 in0.0 mm
03:15 AM 44.4°F6.9°C 39.9°F4.4°C 84% 1.9 mph WNW3.1 kmh WNW 6.8 mph10.9 kmh 29.95 in1014.2 mb 0.00 in0.0 mm 0.00 in0.0 mm 0.00 in0.0 mm
03:30 AM 44.2°F6.8°C 39.7°F4.3°C 84% 1.5 mph W2.4 kmh W 6.4 mph10.3 kmh 29.95 in1014.2 mb 0.00 in0.0 mm 0.00 in0.0 mm 0.00 in0.0 mm
03:45 AM 44.1°F6.7°C 39.2°F4.0°C 83% 2.8 mph WNW4.5 kmh WNW 6.4 mph10.3 kmh 29.95 in1014.2 mb 0.00 in0.0 mm 0.00 in0.0 mm 0.00 in0.0 mm
04:00 AM 44.1°F6.7°C 39.5°F4.2°C 84% 1.1 mph W1.8 kmh W 6.1 mph9.8 kmh 29.95 in1014.2 mb 0.00 in0.0 mm 0.00 in0.0 mm 0.00 in0.0 mm
04:15 AM 44.1°F6.7°C 39.5°F4.2°C 84% 1.4 mph W2.3 kmh W 6.8 mph10.9 kmh 29.95 in1014.2 mb 0.00 in0.0 mm 0.00 in0.0 mm 0.00 in0.0 mm
04:30 AM 44.1°F6.7°C 39.5°F4.2°C 84% 2.1 mph W3.4 kmh W 6.4 mph10.3 kmh 29.95 in1014.2 mb 0.00 in0.0 mm 0.00 in0.0 mm 0.00 in0.0 mm
04:45 AM 43.9°F6.6°C 39.4°F4.1°C 84% 3.4 mph W5.5 kmh W 7.9 mph12.7 kmh 29.95 in1014.2 mb 0.00 in0.0 mm 0.00 in0.0 mm 0.00 in0.0 mm
05:00 AM 43.7°F6.5°C 39.2°F4.0°C 84% 2.4 mph NW3.9 kmh NW 8.6 mph13.8 kmh 29.95 in1014.2 mb 0.00 in0.0 mm 0.00 in0.0 mm 0.00 in0.0 mm
05:15 AM 43.7°F6.5°C 39.2°F4.0°C 84% 2.0 mph W3.2 kmh W 7.5 mph12.1 kmh 29.95 in1014.2 mb 0.00 in0.0 mm 0.00 in0.0 mm 0.00 in0.0 mm
05:30 AM 43.7°F6.5°C 39.2°F4.0°C 84% 3.3 mph NW5.3 kmh NW 6.8 mph10.9 kmh 29.95 in1014.2 mb 0.00 in0.0 mm 0.00 in0.0 mm 0.00 in0.0 mm
05:45 AM 43.7°F6.5°C 39.2°F4.0°C 84% 0.6 mph NNW1.0 kmh NNW 6.1 mph9.8 kmh 29.95 in1014.2 mb 0.00 in0.0 mm 0.00 in0.0 mm 0.00 in0.0 mm
06:00 AM 43.7°F6.5°C 39.2°F4.0°C 84% 0.6 mph NNW1.0 kmh NNW 6.1 mph9.8 kmh 29.95 in1014.2 mb 0.00 in0.0 mm 0.00 in0.0 mm 0.00 in0.0 mm
06:15 AM 43.9°F6.6°C 39.4°F4.1°C 84% 0.8 mph NW1.3 kmh NW 4.7 mph7.6 kmh 29.95 in1014.2 mb 0.00 in0.0 mm 0.00 in0.0 mm 0.00 in0.0 mm
06:30 AM 43.9°F6.6°C 39.4°F4.1°C 84% 1.7 mph NW2.7 kmh NW 5.4 mph8.7 kmh 29.98 in1015.2 mb 0.00 in0.0 mm 0.00 in0.0 mm 0.00 in0.0 mm
06:45 AM 44.1°F6.7°C 39.2°F4.0°C 83% Calm Calm -- 29.95 in1014.2 mb 0.00 in0.0 mm 0.00 in0.0 mm 0.00 in0.0 mm
07:00 AM 44.2°F6.8°C 39.4°F4.1°C 83% 2.0 mph NW3.2 kmh NW 4.7 mph7.6 kmh 29.98 in1015.2 mb 0.00 in0.0 mm 0.00 in0.0 mm 0.00 in0.0 mm
07:15 AM 44.4°F6.9°C 39.6°F4.2°C 83% 0.7 mph W1.1 kmh W 3.9 mph6.3 kmh 29.98 in1015.2 mb 0.00 in0.0 mm 0.00 in0.0 mm 0.00 in0.0 mm
07:30 AM 44.4°F6.9°C 39.3°F4.1°C 82% 2.7 mph NW4.3 kmh NW 5.7 mph9.2 kmh 29.98 in1015.2 mb 0.00 in0.0 mm 0.00 in0.0 mm 0.00 in0.0 mm
07:45 AM 44.8°F7.1°C 39.9°F4.4°C 83% 2.7 mph WSW4.3 kmh WSW 6.4 mph10.3 kmh 29.98 in1015.2 mb 0.00 in0.0 mm 0.00 in0.0 mm 0.00 in0.0 mm
08:00 AM 44.8°F7.1°C 39.6°F4.2°C 82% 2.3 mph W3.7 kmh W 5.7 mph9.2 kmh 29.98 in1015.2 mb 0.00 in0.0 mm 0.00 in0.0 mm 0.00 in0.0 mm
08:15 AM 45.1°F7.3°C 40.0°F4.4°C 82% 0.1 mph NNW0.2 kmh NNW 3.2 mph5.1 kmh 29.98 in1015.2 mb 0.00 in0.0 mm 0.00 in0.0 mm 0.00 in0.0 mm
08:30 AM 45.5°F7.5°C 40.3°F4.6°C 82% 2.4 mph SW3.9 kmh SW 7.9 mph12.7 kmh 29.98 in1015.2 mb 0.00 in0.0 mm 0.00 in0.0 mm 0.00 in0.0 mm
08:45 AM 46.2°F7.9°C 41.0°F5.0°C 82% 2.0 mph WSW3.2 kmh WSW 6.4 mph10.3 kmh 29.98 in1015.2 mb 0.00 in0.0 mm 0.00 in0.0 mm 0.00 in0.0 mm
09:00 AM 46.8°F8.2°C 41.2°F5.1°C 81% 1.1 mph W1.8 kmh W 5.0 mph8.0 kmh 29.98 in1015.2 mb 0.00 in0.0 mm 0.00 in0.0 mm 0.00 in0.0 mm
09:15 AM 47.5°F8.6°C 41.6°F5.3°C 80% 1.6 mph W2.6 kmh W 7.9 mph12.7 kmh 29.98 in1015.2 mb 0.00 in0.0 mm 0.00 in0.0 mm 0.00 in0.0 mm
09:30 AM 48.2°F9.0°C 42.0°F5.6°C 79% 0.8 mph SW1.3 kmh SW 4.3 mph6.9 kmh 30.01 in1016.3 mb 0.00 in0.0 mm 0.00 in0.0 mm 0.00 in0.0 mm
09:45 AM 49.6°F9.8°C 43.1°F6.2°C 78% 0.8 mph SE1.3 kmh SE 6.8 mph10.9 kmh 29.98 in1015.2 mb 0.00 in0.0 mm 0.00 in0.0 mm 0.00 in0.0 mm
10:00 AM 50.0°F10.0°C 43.1°F6.2°C 77% 0.3 mph NE0.5 kmh NE 4.3 mph6.9 kmh 29.98 in1015.2 mb 0.00 in0.0 mm 0.00 in0.0 mm 0.00 in0.0 mm
10:15 AM 49.8°F9.9°C 41.9°F5.5°C 74% 1.7 mph NW2.7 kmh NW 5.4 mph8.7 kmh 29.98 in1015.2 mb 0.00 in0.0 mm 0.00 in0.0 mm 0.00 in0.0 mm
10:30 AM 49.6°F9.8°C 42.0°F5.6°C 75% 0.7 mph W1.1 kmh W 6.1 mph9.8 kmh 29.98 in1015.2 mb 0.00 in0.0 mm 0.00 in0.0 mm 0.00 in0.0 mm
10:45 AM 50.2°F10.1°C 42.6°F5.9°C 75% 6.5 mph W10.5 kmh W 12.2 mph19.6 kmh 29.98 in1015.2 mb 0.00 in0.0 mm 0.00 in0.0 mm 0.00 in0.0 mm
11:00 AM 50.2°F10.1°C 42.2°F5.7°C 74% 5.3 mph WSW8.5 kmh WSW 11.8 mph19.0 kmh 29.98 in1015.2 mb 0.00 in0.0 mm 0.00 in0.0 mm 0.00 in0.0 mm
11:15 AM 50.2°F10.1°C 41.9°F5.5°C 73% 5.0 mph W8.0 kmh W 12.2 mph19.6 kmh 29.95 in1014.2 mb 0.00 in0.0 mm 0.00 in0.0 mm 0.00 in0.0 mm
11:30 AM 49.8°F9.9°C 41.5°F5.3°C 73% 5.9 mph W9.5 kmh W 13.6 mph21.9 kmh 29.95 in1014.2 mb 0.00 in0.0 mm 0.00 in0.0 mm 0.00 in0.0 mm
11:45 AM 49.8°F9.9°C 41.5°F5.3°C 73% 6.2 mph WSW10.0 kmh WSW 10.0 mph16.1 kmh 29.95 in1014.2 mb 0.00 in0.0 mm 0.00 in0.0 mm 0.00 in0.0 mm
12:00 PM 49.6°F9.8°C 41.3°F5.2°C 73% 5.9 mph W9.5 kmh W 11.1 mph17.9 kmh 29.95 in1014.2 mb 0.00 in0.0 mm 0.00 in0.0 mm 0.00 in0.0 mm
12:15 PM 50.0°F10.0°C 42.0°F5.6°C 74% 5.8 mph W9.3 kmh W 11.8 mph19.0 kmh 29.95 in1014.2 mb 0.00 in0.0 mm 0.00 in0.0 mm 0.00 in0.0 mm
12:30 PM 49.8°F9.9°C 41.5°F5.3°C 73% 5.2 mph W8.4 kmh W 9.7 mph15.6 kmh 29.95 in1014.2 mb 0.00 in0.0 mm 0.00 in0.0 mm 0.00 in0.0 mm
12:45 PM 50.0°F10.0°C 41.7°F5.4°C 73% 4.9 mph W7.9 kmh W 12.2 mph19.6 kmh 29.95 in1014.2 mb 0.00 in0.0 mm 0.00 in0.0 mm 0.00 in0.0 mm
01:00 PM 50.7°F10.4°C 42.4°F5.8°C 73% 3.5 mph W5.6 kmh W 10.0 mph16.1 kmh 29.95 in1014.2 mb 0.00 in0.0 mm 0.00 in0.0 mm 0.00 in0.0 mm
01:15 PM 52.0°F11.1°C 43.6°F6.4°C 73% 2.8 mph WSW4.5 kmh WSW 6.8 mph10.9 kmh 29.92 in1013.2 mb 0.00 in0.0 mm 0.00 in0.0 mm 0.00 in0.0 mm
01:30 PM 52.5°F11.4°C 42.6°F5.9°C 69% 4.9 mph W7.9 kmh W 9.7 mph15.6 kmh 29.92 in1013.2 mb 0.00 in0.0 mm 0.00 in0.0 mm 0.00 in0.0 mm
01:45 PM 52.3°F11.3°C 42.8°F6.0°C 70% 4.3 mph W6.9 kmh W 10.4 mph16.7 kmh 29.89 in1012.2 mb 0.00 in0.0 mm 0.00 in0.0 mm 0.00 in0.0 mm
02:00 PM 52.7°F11.5°C 42.8°F6.0°C 69% 5.7 mph W9.2 kmh W 11.1 mph17.9 kmh 29.92 in1013.2 mb 0.00 in0.0 mm 0.00 in0.0 mm 0.00 in0.0 mm
02:15 PM 52.9°F11.6°C 42.6°F5.9°C 68% 6.5 mph WSW10.5 kmh WSW 13.6 mph21.9 kmh 29.92 in1013.2 mb 0.00 in0.0 mm 0.00 in0.0 mm 0.00 in0.0 mm
02:30 PM 52.5°F11.4°C 41.9°F5.5°C 67% 5.5 mph W8.9 kmh W 10.0 mph16.1 kmh 29.92 in1013.2 mb 0.00 in0.0 mm 0.00 in0.0 mm 0.00 in0.0 mm
02:45 PM 52.9°F11.6°C 42.6°F5.9°C 68% 4.8 mph WSW7.7 kmh WSW 9.3 mph15.0 kmh 29.92 in1013.2 mb 0.00 in0.0 mm 0.00 in0.0 mm 0.00 in0.0 mm
03:00 PM 53.2°F11.8°C 42.6°F5.9°C 67% 4.0 mph W6.4 kmh W 8.9 mph14.3 kmh 29.92 in1013.2 mb 0.00 in0.0 mm 0.00 in0.0 mm 0.00 in0.0 mm
03:15 PM 54.1°F12.3°C 43.0°F6.1°C 66% 4.7 mph W7.6 kmh W 11.8 mph19.0 kmh 29.89 in1012.2 mb 0.00 in0.0 mm 0.00 in0.0 mm 0.00 in0.0 mm
03:30 PM 53.4°F11.9°C 41.5°F5.3°C 64% 8.6 mph W13.8 kmh W 14.3 mph23.0 kmh 29.89 in1012.2 mb 0.00 in0.0 mm 0.00 in0.0 mm 0.00 in0.0 mm
03:45 PM 52.9°F11.6°C 41.0°F5.0°C 64% 6.6 mph WSW10.6 kmh WSW 12.2 mph19.6 kmh 29.89 in1012.2 mb 0.00 in0.0 mm 0.00 in0.0 mm 0.00 in0.0 mm
04:00 PM 52.3°F11.3°C 40.9°F4.9°C 65% 2.2 mph W3.5 kmh W 7.5 mph12.1 kmh 29.89 in1012.2 mb 0.00 in0.0 mm 0.00 in0.0 mm 0.00 in0.0 mm
04:15 PM 52.2°F11.2°C 41.1°F5.1°C 66% 2.4 mph W3.9 kmh W 5.7 mph9.2 kmh 29.89 in1012.2 mb 0.00 in0.0 mm 0.00 in0.0 mm 0.00 in0.0 mm
04:30 PM 53.2°F11.8°C 42.2°F5.7°C 66% 2.8 mph W4.5 kmh W 6.1 mph9.8 kmh 29.86 in1011.2 mb 0.00 in0.0 mm 0.00 in0.0 mm 0.00 in0.0 mm
04:45 PM 53.8°F12.1°C 42.3°F5.7°C 65% 0.9 mph N1.4 kmh N 3.2 mph5.1 kmh 29.86 in1011.2 mb 0.00 in0.0 mm 0.00 in0.0 mm 0.00 in0.0 mm
05:00 PM 53.8°F12.1°C 41.9°F5.5°C 64% Calm Calm -- 29.86 in1011.2 mb 0.00 in0.0 mm 0.00 in0.0 mm 0.00 in0.0 mm
05:15 PM 53.6°F12.0°C 40.5°F4.7°C 61% 2.4 mph WSW3.9 kmh WSW 7.5 mph12.1 kmh 29.86 in1011.2 mb 0.00 in0.0 mm 0.00 in0.0 mm 0.00 in0.0 mm
05:30 PM 53.6°F12.0°C 40.0°F4.4°C 60% Calm Calm -- 29.86 in1011.2 mb 0.00 in0.0 mm 0.00 in0.0 mm 0.00 in0.0 mm
05:45 PM 53.4°F11.9°C 39.9°F4.4°C 60% Calm Calm -- 29.83 in1010.2 mb 0.00 in0.0 mm 0.00 in0.0 mm 0.00 in0.0 mm
06:00 PM 53.4°F11.9°C 39.4°F4.1°C 59% Calm Calm -- 29.83 in1010.2 mb 0.00 in0.0 mm 0.00 in0.0 mm 0.00 in0.0 mm
06:15 PM 53.4°F11.9°C 39.9°F4.4°C 60% Calm Calm -- 29.83 in1010.2 mb 0.00 in0.0 mm 0.00 in0.0 mm 0.00 in0.0 mm
06:30 PM 52.7°F11.5°C 39.6°F4.2°C 61% Calm Calm -- 29.83 in1010.2 mb 0.00 in0.0 mm 0.00 in0.0 mm 0.00 in0.0 mm
06:45 PM 52.2°F11.2°C 39.9°F4.4°C 63% Calm Calm -- 29.83 in1010.2 mb 0.00 in0.0 mm 0.00 in0.0 mm 0.00 in0.0 mm
07:00 PM 51.3°F10.7°C 39.9°F4.4°C 65% Calm Calm -- 29.83 in1010.2 mb 0.00 in0.0 mm 0.00 in0.0 mm 0.00 in0.0 mm
07:15 PM 50.2°F10.1°C 39.3°F4.1°C 66% 1.0 mph SE1.6 kmh SE 6.8 mph10.9 kmh 29.83 in1010.2 mb 0.00 in0.0 mm 0.00 in0.0 mm 0.00 in0.0 mm
07:30 PM 49.6°F9.8°C 39.1°F3.9°C 67% Calm Calm -- 29.83 in1010.2 mb 0.00 in0.0 mm 0.00 in0.0 mm 0.00 in0.0 mm
07:45 PM 49.1°F9.5°C 38.2°F3.4°C 66% 3.6 mph SE5.8 kmh SE 8.6 mph13.8 kmh 29.83 in1010.2 mb 0.00 in0.0 mm 0.00 in0.0 mm 0.00 in0.0 mm
08:00 PM 48.9°F9.4°C 38.1°F3.4°C 66% 5.4 mph SE8.7 kmh SE 10.0 mph16.1 kmh 29.83 in1010.2 mb 0.00 in0.0 mm 0.00 in0.0 mm 0.00 in0.0 mm
08:15 PM 48.7°F9.3°C 37.5°F3.1°C 65% 7.5 mph ESE12.1 kmh ESE 10.7 mph17.2 kmh 29.83 in1010.2 mb 0.00 in0.0 mm 0.00 in0.0 mm 0.00 in0.0 mm
08:30 PM 48.6°F9.2°C 37.3°F2.9°C 65% 7.6 mph SE12.2 kmh SE 10.4 mph16.7 kmh 29.83 in1010.2 mb 0.00 in0.0 mm 0.00 in0.0 mm 0.00 in0.0 mm
08:45 PM 48.4°F9.1°C 37.5°F3.1°C 66% 7.8 mph ESE12.6 kmh ESE 10.4 mph16.7 kmh 29.83 in1010.2 mb 0.00 in0.0 mm 0.00 in0.0 mm 0.00 in0.0 mm
09:00 PM 48.4°F9.1°C 38.3°F3.5°C 68% 6.6 mph E10.6 kmh E 9.7 mph15.6 kmh 29.83 in1010.2 mb 0.00 in0.0 mm 0.00 in0.0 mm 0.00 in0.0 mm
09:15 PM 48.2°F9.0°C 38.5°F3.6°C 69% 0.8 mph E1.3 kmh E 6.1 mph9.8 kmh 29.83 in1010.2 mb 0.00 in0.0 mm 0.00 in0.0 mm 0.00 in0.0 mm
09:30 PM 47.7°F8.7°C 38.4°F3.6°C 70% Calm Calm -- 29.83 in1010.2 mb 0.00 in0.0 mm 0.00 in0.0 mm 0.00 in0.0 mm
09:45 PM 47.1°F8.4°C 37.8°F3.2°C 70% Calm Calm -- 29.83 in1010.2 mb 0.00 in0.0 mm 0.00 in0.0 mm 0.00 in0.0 mm
10:00 PM 46.4°F8.0°C 37.5°F3.1°C 71% 0.2 mph ESE0.3 kmh ESE 4.7 mph7.6 kmh 29.80 in1009.1 mb 0.00 in0.0 mm 0.00 in0.0 mm 0.00 in0.0 mm
10:15 PM 45.9°F7.7°C 37.0°F2.8°C 71% 0.1 mph E0.2 kmh E 3.9 mph6.3 kmh 29.80 in1009.1 mb 0.00 in0.0 mm 0.00 in0.0 mm 0.00 in0.0 mm
10:30 PM 45.7°F7.6°C 37.2°F2.9°C 72% 0.2 mph E0.3 kmh E 3.6 mph5.8 kmh 29.80 in1009.1 mb 0.00 in0.0 mm 0.00 in0.0 mm 0.00 in0.0 mm
10:45 PM 45.9°F7.7°C 37.3°F2.9°C 72% 1.3 mph ESE2.1 kmh ESE 6.8 mph10.9 kmh 29.80 in1009.1 mb 0.00 in0.0 mm 0.00 in0.0 mm 0.00 in0.0 mm
11:00 PM 46.2°F7.9°C 38.0°F3.3°C 73% 3.9 mph ESE6.3 kmh ESE 8.6 mph13.8 kmh 29.80 in1009.1 mb 0.00 in0.0 mm 0.00 in0.0 mm 0.00 in0.0 mm
11:15 PM 46.4°F8.0°C 38.2°F3.4°C 73% 5.5 mph E8.9 kmh E 10.0 mph16.1 kmh 29.80 in1009.1 mb 0.00 in0.0 mm 0.00 in0.0 mm 0.00 in0.0 mm
11:30 PM 46.4°F8.0°C 38.6°F3.7°C 74% 4.4 mph ESE7.1 kmh ESE 9.7 mph15.6 kmh 29.80 in1009.1 mb 0.00 in0.0 mm 0.00 in0.0 mm 0.00 in0.0 mm
11:45 PM 46.4°F8.0°C 38.6°F3.7°C 74% 5.9 mph SE9.5 kmh SE 10.4 mph16.7 kmh 29.77 in1008.1 mb 0.00 in0.0 mm 0.00 in0.0 mm 0.00 in0.0 mm